Time;durP1;ratioP1;P1;durP2;ratioP2;P2;SDS_P1;SDS_P2;PMS_P1;PMS_P2;Temp;Humidity;BMP_temperature;BMP_pressure;BME280_temperature;BME280_humidity;BME280_pressure;Samples;Min_cycle;Max_cycle;Signal;HPM_P1;HPM_P2
2022/01/16 00:04:07;;;;;;;40.67;29.90;;;;;;;;;;4935782;29;20501;-72
2022/01/16 00:06:35;;;;;;;39.33;26.33;;;;;;;;;;4935316;29;20046;-71
2022/01/16 00:09:03;;;;;;;37.00;26.15;;;;;;;;;;4936830;29;20044;-73
2022/01/16 00:11:31;;;;;;;33.30;27.25;;;;;;;;;;4935468;29;20060;-73
2022/01/16 00:13:58;;;;;;;31.98;25.95;;;;;;;;;;4935561;29;20508;-75
2022/01/16 00:16:25;;;;;;;35.03;24.27;;;;;;;;;;4935475;29;20047;-73
2022/01/16 00:18:52;;;;;;;35.75;26.52;;;;;;;;;;4935272;29;20062;-75
2022/01/16 00:21:21;;;;;;;32.33;25.90;;;;;;;;;;4935510;29;20043;-73
2022/01/16 00:23:48;;;;;;;40.80;27.40;;;;;;;;;;4936603;29;20055;-72
2022/01/16 00:26:16;;;;;;;38.30;28.20;;;;;;;;;;4936458;29;20128;-74
2022/01/16 00:28:43;;;;;;;39.42;25.23;;;;;;;;;;4934769;29;20131;-73
2022/01/16 00:31:10;;;;;;;32.50;24.30;;;;;;;;;;4936759;29;20047;-72
2022/01/16 00:33:39;;;;;;;32.22;24.27;;;;;;;;;;4936314;29;20052;-72
2022/01/16 00:36:06;;;;;;;32.45;23.45;;;;;;;;;;4934872;29;20062;-72
2022/01/16 00:38:34;;;;;;;28.42;22.15;;;;;;;;;;4936514;29;20055;-73
2022/01/16 00:41:01;;;;;;;25.38;21.02;;;;;;;;;;4936506;29;20047;-73
2022/01/16 00:43:28;;;;;;;22.65;20.15;;;;;;;;;;4933797;29;20073;-76
2022/01/16 00:45:55;;;;;;;29.23;18.83;;;;;;;;;;4934145;29;20067;-74
2022/01/16 00:48:22;;;;;;;24.48;19.98;;;;;;;;;;4936318;29;20087;-76
2022/01/16 00:50:49;;;;;;;21.52;17.25;;;;;;;;;;4935770;29;20055;-74
2022/01/16 00:53:16;;;;;;;28.83;18.92;;;;;;;;;;4935662;29;20063;-74
2022/01/16 00:55:42;;;;;;;22.02;18.70;;;;;;;;;;4934382;29;20066;-75
2022/01/16 00:58:10;;;;;;;25.50;19.77;;;;;;;;;;4935926;29;20047;-74
2022/01/16 01:00:37;;;;;;;21.80;18.60;;;;;;;;;;4935899;29;20052;-73
2022/01/16 01:03:06;;;;;;;25.50;19.98;;;;;;;;;;4933938;29;20082;-74
2022/01/16 01:05:34;;;;;;;24.85;20.27;;;;;;;;;;4934783;29;20131;-75
2022/01/16 01:08:02;;;;;;;30.45;20.23;;;;;;;;;;4935163;29;20058;-74
2022/01/16 01:10:34;;;;;;;23.05;16.13;;;;;;;;;;4936169;29;20055;-74
2022/01/16 01:13:21;;;;;;;22.85;17.40;;;;;;;;;;4934786;29;20403;-75
2022/01/16 01:15:51;;;;;;;23.13;18.00;;;;;;;;;;4935120;29;20492;-75
2022/01/16 01:18:23;;;;;;;23.95;17.63;;;;;;;;;;4934726;29;20059;-76
2022/01/16 01:20:51;;;;;;;19.08;16.10;;;;;;;;;;4929476;29;20043;-75
2022/01/16 01:23:18;;;;;;;20.15;15.82;;;;;;;;;;4936035;29;20519;-74
2022/01/16 01:25:46;;;;;;;20.33;17.50;;;;;;;;;;4935553;29;20056;-75
2022/01/16 01:28:13;;;;;;;21.00;16.70;;;;;;;;;;4934804;29;20066;-75
2022/01/16 01:30:41;;;;;;;24.48;16.85;;;;;;;;;;4935175;29;20048;-75
2022/01/16 01:33:08;;;;;;;17.10;15.05;;;;;;;;;;4934618;29;20055;-74
2022/01/16 01:35:39;;;;;;;19.13;13.63;;;;;;;;;;4934153;29;20063;-75
2022/01/16 01:38:08;;;;;;;18.90;16.40;;;;;;;;;;4934208;29;20047;-73
2022/01/16 01:40:37;;;;;;;17.77;14.85;;;;;;;;;;4935089;29;20522;-73
2022/01/16 01:51:25;;;;;;;18.30;15.93;;;;;;;;;;4934718;29;20051;-73
2022/01/16 01:53:54;;;;;;;19.65;15.77;;;;;;;;;;4933559;29;20054;-73
2022/01/16 01:56:23;;;;;;;19.35;17.05;;;;;;;;;;4933922;29;20048;-73
2022/01/16 01:58:51;;;;;;;21.50;17.40;;;;;;;;;;4933959;29;20059;-73
2022/01/16 02:01:18;;;;;;;19.52;16.15;;;;;;;;;;4934190;29;20560;-73
2022/01/16 02:03:48;;;;;;;18.13;15.35;;;;;;;;;;4933696;29;20055;-73
2022/01/16 02:06:18;;;;;;;19.77;16.75;;;;;;;;;;4933711;29;20047;-73
2022/01/16 02:08:48;;;;;;;24.35;15.90;;;;;;;;;;4935209;29;20147;-73
2022/01/16 02:11:16;;;;;;;21.58;17.55;;;;;;;;;;4934811;29;20079;-73
2022/01/16 02:28:22;;;;;;;22.67;14.98;;;;;;;;;;4920254;29;20048;-73
2022/01/16 02:36:16;;;;;;;18.85;14.98;;;;;;;;;;4933514;29;20058;-73
2022/01/16 02:38:45;;;;;;;18.75;14.73;;;;;;;;;;4934540;29;20054;-73
2022/01/16 02:41:12;;;;;;;18.85;15.15;;;;;;;;;;4933410;29;20493;-73
2022/01/16 02:43:45;;;;;;;19.67;14.95;;;;;;;;;;4932989;29;20048;-73
2022/01/16 02:48:45;;;;;;;17.55;12.95;;;;;;;;;;4934558;29;20099;-74
2022/01/16 02:51:21;;;;;;;17.55;14.05;;;;;;;;;;4933102;29;20142;-75
2022/01/16 02:53:49;;;;;;;19.45;16.02;;;;;;;;;;4933555;29;20135;-72
2022/01/16 02:56:17;;;;;;;20.08;15.93;;;;;;;;;;4933209;29;20141;-72
2022/01/16 02:58:46;;;;;;;19.42;15.75;;;;;;;;;;4933151;29;20064;-72
2022/01/16 03:01:13;;;;;;;19.02;16.67;;;;;;;;;;4934234;29;20127;-72
2022/01/16 03:03:43;;;;;;;19.42;16.70;;;;;;;;;;4934511;29;20043;-73
2022/01/16 03:06:10;;;;;;;30.98;21.42;;;;;;;;;;4934116;29;20047;-72
2022/01/16 03:08:37;;;;;;;21.38;17.55;;;;;;;;;;4934191;29;20048;-73
2022/01/16 03:13:50;;;;;;;36.20;28.58;;;;;;;;;;4937856;29;20452;-73
2022/01/16 03:16:21;;;;;;;37.88;28.85;;;;;;;;;;4937242;29;20055;-72
2022/01/16 03:21:55;;;;;;;29.55;22.38;;;;;;;;;;4937187;29;20043;-72
2022/01/16 03:24:25;;;;;;;28.55;23.13;;;;;;;;;;4937881;29;20052;-72
2022/01/16 03:27:01;;;;;;;22.45;19.42;;;;;;;;;;4936919;29;20567;-72
2022/01/16 03:29:28;;;;;;;24.25;19.35;;;;;;;;;;4925209;29;20573;-72
2022/01/16 03:31:57;;;;;;;23.70;18.88;;;;;;;;;;4937365;29;20499;-72
2022/01/16 03:34:24;;;;;;;22.27;17.45;;;;;;;;;;4936356;29;20044;-72
2022/01/16 03:36:51;;;;;;;21.83;17.92;;;;;;;;;;4936089;29;20604;-72
2022/01/16 03:39:18;;;;;;;19.05;16.75;;;;;;;;;;4937809;29;20079;-72
2022/01/16 03:41:45;;;;;;;21.38;17.05;;;;;;;;;;4937515;29;20048;-72
2022/01/16 03:44:13;;;;;;;22.88;17.30;;;;;;;;;;4936459;29;20511;-72
2022/01/16 03:46:43;;;;;;;22.63;19.83;;;;;;;;;;4937177;29;20040;-73
2022/01/16 03:49:11;;;;;;;23.77;17.30;;;;;;;;;;4937704;29;20039;-74
2022/01/16 03:51:39;;;;;;;22.92;18.52;;;;;;;;;;4935955;29;20047;-72
2022/01/16 03:54:09;;;;;;;23.10;18.23;;;;;;;;;;4936679;29;20052;-72
2022/01/16 03:56:37;;;;;;;25.90;19.70;;;;;;;;;;4937388;29;20560;-73
2022/01/16 03:59:05;;;;;;;22.08;18.10;;;;;;;;;;4935730;29;20055;-73
2022/01/16 04:01:32;;;;;;;22.40;18.17;;;;;;;;;;4936062;29;20480;-73
2022/01/16 04:03:59;;;;;;;50.10;21.67;;;;;;;;;;4937031;29;20076;-75
2022/01/16 04:06:26;;;;;;;25.60;20.95;;;;;;;;;;4935976;29;20051;-73
2022/01/16 04:08:54;;;;;;;28.85;22.48;;;;;;;;;;4935593;29;20067;-72
2022/01/16 04:11:26;;;;;;;27.90;21.60;;;;;;;;;;4937030;29;20139;-73
2022/01/16 04:14:02;;;;;;;27.23;20.48;;;;;;;;;;4936040;29;20052;-72
2022/01/16 04:16:30;;;;;;;28.90;21.92;;;;;;;;;;4935761;29;20143;-72
2022/01/16 04:18:57;;;;;;;32.45;22.40;;;;;;;;;;4936493;29;20052;-71
2022/01/16 04:21:27;;;;;;;29.10;21.95;;;;;;;;;;4936654;29;20086;-72
2022/01/16 04:23:55;;;;;;;28.52;20.92;;;;;;;;;;4935994;29;20075;-72
2022/01/16 04:26:25;;;;;;;34.85;25.27;;;;;;;;;;4936540;29;20047;-73
2022/01/16 04:28:53;;;;;;;31.77;24.67;;;;;;;;;;4935864;29;20048;-73
2022/01/16 04:31:22;;;;;;;29.17;22.20;;;;;;;;;;4936942;29;20078;-73
2022/01/16 04:33:50;;;;;;;40.08;25.85;;;;;;;;;;4935263;29;20054;-72
2022/01/16 04:36:17;;;;;;;30.63;23.88;;;;;;;;;;4936962;29;20138;-72
2022/01/16 04:38:49;;;;;;;34.28;24.15;;;;;;;;;;4936615;29;20143;-72
2022/01/16 04:44:03;;;;;;;29.83;21.88;;;;;;;;;;4935935;29;20056;-72
2022/01/16 04:46:32;;;;;;;22.25;18.80;;;;;;;;;;4920015;29;20048;-73
2022/01/16 04:49:00;;;;;;;22.60;17.90;;;;;;;;;;4934955;29;20059;-72
2022/01/16 04:51:28;;;;;;;18.63;15.60;;;;;;;;;;4935312;29;20047;-73
2022/01/16 04:53:55;;;;;;;20.77;16.92;;;;;;;;;;4936404;29;20058;-72
2022/01/16 04:56:22;;;;;;;18.85;14.00;;;;;;;;;;4934860;29;20523;-72
2022/01/16 04:58:49;;;;;;;17.35;13.70;;;;;;;;;;4934814;29;20094;-72
2022/01/16 05:01:16;;;;;;;16.15;13.30;;;;;;;;;;4936312;29;20051;-72
2022/01/16 05:03:44;;;;;;;19.35;13.68;;;;;;;;;;4935146;29;20556;-74
2022/01/16 05:06:11;;;;;;;18.20;13.23;;;;;;;;;;4916964;29;20059;-73
2022/01/16 05:08:38;;;;;;;16.05;13.07;;;;;;;;;;4934757;29;20048;-73
2022/01/16 05:11:07;;;;;;;14.02;11.93;;;;;;;;;;4936387;29;20047;-71
2022/01/16 05:18:51;;;;;;;12.70;10.95;;;;;;;;;;4910440;29;20582;-72
2022/01/16 05:21:18;;;;;;;16.90;11.75;;;;;;;;;;4935781;29;20108;-72
2022/01/16 05:23:46;;;;;;;11.95;10.75;;;;;;;;;;4934697;29;20415;-72
2022/01/16 05:26:14;;;;;;;12.07;10.73;;;;;;;;;;4935775;29;20457;-72
2022/01/16 05:28:41;;;;;;;12.77;10.90;;;;;;;;;;4934243;29;20134;-73
2022/01/16 05:31:08;;;;;;;12.77;10.70;;;;;;;;;;4933884;29;20146;-73
2022/01/16 05:33:35;;;;;;;15.20;12.10;;;;;;;;;;4935526;29;20106;-72
2022/01/16 05:36:02;;;;;;;15.82;11.90;;;;;;;;;;4935227;29;20066;-72
2022/01/16 05:38:29;;;;;;;16.15;13.73;;;;;;;;;;4934817;29;20051;-72
2022/01/16 05:40:56;;;;;;;15.88;13.52;;;;;;;;;;4934894;29;20135;-72
2022/01/16 05:43:23;;;;;;;20.88;15.40;;;;;;;;;;4935218;29;20066;-73
2022/01/16 05:45:50;;;;;;;19.65;14.75;;;;;;;;;;4933776;29;20515;-73
2022/01/16 05:48:17;;;;;;;20.42;15.77;;;;;;;;;;4935293;29;20086;-72
2022/01/16 05:50:44;;;;;;;18.77;14.18;;;;;;;;;;4935615;29;20055;-73
2022/01/16 05:53:11;;;;;;;20.90;14.63;;;;;;;;;;4934935;29;20130;-72
2022/01/16 05:55:38;;;;;;;51.97;18.58;;;;;;;;;;4933904;29;20596;-72
2022/01/16 05:58:09;;;;;;;23.73;18.00;;;;;;;;;;4935041;29;20138;-72
2022/01/16 06:00:37;;;;;;;22.40;17.85;;;;;;;;;;4934252;29;20142;-71
2022/01/16 06:03:05;;;;;;;22.80;18.70;;;;;;;;;;4934656;29;20059;-72
2022/01/16 06:05:32;;;;;;;23.15;19.77;;;;;;;;;;4934052;29;20043;-72
2022/01/16 06:08:06;;;;;;;24.52;19.13;;;;;;;;;;4933963;29;20413;-72
2022/01/16 06:10:33;;;;;;;28.02;20.98;;;;;;;;;;4934025;29;20086;-72
2022/01/16 06:13:02;;;;;;;26.55;21.15;;;;;;;;;;4933816;29;20111;-72
2022/01/16 06:15:29;;;;;;;27.13;21.15;;;;;;;;;;4934647;29;20067;-72
2022/01/16 06:17:56;;;;;;;29.88;21.33;;;;;;;;;;4933852;29;20107;-72
2022/01/16 06:20:23;;;;;;;29.20;23.08;;;;;;;;;;4934949;29;20148;-74
2022/01/16 06:22:53;;;;;;;31.83;23.67;;;;;;;;;;4934999;29;20051;-71
2022/01/16 06:25:20;;;;;;;32.03;23.73;;;;;;;;;;4933504;29;20055;-72
2022/01/16 06:27:47;;;;;;;26.73;21.67;;;;;;;;;;4933653;29;20052;-71
2022/01/16 06:30:14;;;;;;;27.70;21.48;;;;;;;;;;4934732;29;20048;-72
2022/01/16 06:32:41;;;;;;;26.58;19.92;;;;;;;;;;4933303;29;20130;-72
2022/01/16 06:35:09;;;;;;;56.15;24.20;;;;;;;;;;4933655;29;20048;-70
2022/01/16 06:37:36;;;;;;;33.90;24.63;;;;;;;;;;4931319;29;20056;-73
2022/01/16 06:40:05;;;;;;;30.48;21.08;;;;;;;;;;4928163;29;20495;-73
2022/01/16 06:42:32;;;;;;;28.02;20.85;;;;;;;;;;4931391;29;20135;-73
2022/01/16 06:44:59;;;;;;;27.95;20.85;;;;;;;;;;4933494;29;20070;-73
2022/01/16 06:47:27;;;;;;;25.60;19.50;;;;;;;;;;4924436;29;20051;-73
2022/01/16 06:49:54;;;;;;;22.48;18.30;;;;;;;;;;4931567;29;20056;-73
2022/01/16 06:52:21;;;;;;;24.13;19.88;;;;;;;;;;4916598;29;20078;-73
2022/01/16 06:54:48;;;;;;;23.48;18.75;;;;;;;;;;4932875;29;20729;-72
2022/01/16 06:57:16;;;;;;;24.55;18.08;;;;;;;;;;4916499;29;20217;-73
2022/01/16 06:59:45;;;;;;;26.80;20.80;;;;;;;;;;4916459;29;20052;-73
2022/01/16 07:02:13;;;;;;;27.52;19.73;;;;;;;;;;4933111;29;20055;-72
2022/01/16 07:04:40;;;;;;;21.08;18.05;;;;;;;;;;4931156;29;20385;-72
2022/01/16 07:07:07;;;;;;;23.77;20.25;;;;;;;;;;4931935;29;20083;-73
2022/01/16 07:09:34;;;;;;;27.50;21.88;;;;;;;;;;4917888;29;20047;-73
2022/01/16 07:12:01;;;;;;;29.08;23.15;;;;;;;;;;4914444;29;20075;-73
2022/01/16 07:14:28;;;;;;;30.05;23.45;;;;;;;;;;4926546;29;20492;-73
2022/01/16 07:16:55;;;;;;;30.55;21.73;;;;;;;;;;4932793;29;20043;-75
2022/01/16 07:19:22;;;;;;;38.22;22.67;;;;;;;;;;4939510;29;20115;-75
2022/01/16 07:21:50;;;;;;;29.23;22.63;;;;;;;;;;4922257;29;20058;-74
2022/01/16 07:24:17;;;;;;;29.77;23.08;;;;;;;;;;4938525;29;20052;-75
2022/01/16 07:26:44;;;;;;;29.55;24.15;;;;;;;;;;4920083;29;20048;-75
2022/01/16 07:29:11;;;;;;;28.83;23.48;;;;;;;;;;4934961;29;20043;-75
2022/01/16 07:31:39;;;;;;;27.17;21.02;;;;;;;;;;4934940;29;20106;-73
2022/01/16 07:34:07;;;;;;;26.10;20.33;;;;;;;;;;4935764;29;20059;-72
2022/01/16 07:36:34;;;;;;;27.45;21.23;;;;;;;;;;4933480;29;20051;-70
2022/01/16 07:39:02;;;;;;;25.80;18.83;;;;;;;;;;4918478;29;20050;-71
2022/01/16 07:41:30;;;;;;;29.10;19.67;;;;;;;;;;4919698;29;20068;-71
2022/01/16 07:43:57;;;;;;;26.27;19.77;;;;;;;;;;4931706;29;20057;-70
2022/01/16 07:46:24;;;;;;;23.17;18.60;;;;;;;;;;4918763;29;20056;-71
2022/01/16 07:48:52;;;;;;;23.70;17.35;;;;;;;;;;4920889;29;20043;-71
2022/01/16 07:51:19;;;;;;;23.30;17.02;;;;;;;;;;4919246;29;20060;-72
2022/01/16 07:53:46;;;;;;;21.75;17.73;;;;;;;;;;4917981;29;20068;-71
2022/01/16 07:56:14;;;;;;;20.30;16.67;;;;;;;;;;4924189;29;20056;-71
2022/01/16 07:58:42;;;;;;;31.50;19.38;;;;;;;;;;4939229;29;20091;-71
2022/01/16 08:01:09;;;;;;;23.13;16.23;;;;;;;;;;4943159;29;20472;-71
2022/01/16 08:03:37;;;;;;;21.33;16.55;;;;;;;;;;4942633;29;20461;-70
2022/01/16 08:06:04;;;;;;;20.20;16.08;;;;;;;;;;4934676;29;20055;-72
2022/01/16 08:08:31;;;;;;;17.20;15.30;;;;;;;;;;4925857;29;20605;-70
2022/01/16 08:10:58;;;;;;;18.25;14.65;;;;;;;;;;4924519;29;20304;-70
2022/01/16 08:13:25;;;;;;;19.17;15.88;;;;;;;;;;4935847;29;20855;-70
2022/01/16 08:15:52;;;;;;;18.30;15.48;;;;;;;;;;4938924;29;20067;-71
2022/01/16 08:18:20;;;;;;;20.92;15.55;;;;;;;;;;4919635;29;20130;-68
2022/01/16 08:20:47;;;;;;;20.77;15.70;;;;;;;;;;4936946;29;20408;-69
2022/01/16 08:23:14;;;;;;;25.77;15.40;;;;;;;;;;4936089;29;20059;-69
2022/01/16 08:25:41;;;;;;;20.75;16.45;;;;;;;;;;4936201;29;20206;-69
2022/01/16 08:28:08;;;;;;;21.88;17.48;;;;;;;;;;4933290;29;20058;-71
2022/01/16 08:30:35;;;;;;;20.38;17.30;;;;;;;;;;4935699;29;20047;-74
2022/01/16 08:33:02;;;;;;;24.33;19.23;;;;;;;;;;4918285;29;20388;-72
2022/01/16 08:35:29;;;;;;;20.85;16.40;;;;;;;;;;4933067;29;20060;-69
2022/01/16 08:37:56;;;;;;;20.33;16.10;;;;;;;;;;4931474;29;20047;-70
2022/01/16 08:40:24;;;;;;;19.63;17.23;;;;;;;;;;4931994;29;20122;-71
2022/01/16 08:42:51;;;;;;;26.05;17.55;;;;;;;;;;4935174;29;20055;-68
2022/01/16 08:45:18;;;;;;;23.98;18.00;;;;;;;;;;4932353;29;20071;-70
2022/01/16 08:47:45;;;;;;;30.60;22.90;;;;;;;;;;4933616;29;20055;-69
2022/01/16 08:50:14;;;;;;;38.00;25.42;;;;;;;;;;4932067;29;20047;-70
2022/01/16 08:52:42;;;;;;;28.05;21.75;;;;;;;;;;4931778;29;20082;-70
2022/01/16 08:55:10;;;;;;;28.27;18.52;;;;;;;;;;4931353;29;20052;-68
2022/01/16 08:57:38;;;;;;;22.08;19.25;;;;;;;;;;4930031;29;20055;-68
2022/01/16 09:00:08;;;;;;;23.65;18.02;;;;;;;;;;4928174;29;20052;-69
2022/01/16 09:02:35;;;;;;;24.08;18.17;;;;;;;;;;4912412;29;20155;-68
2022/01/16 09:05:04;;;;;;;24.73;19.92;;;;;;;;;;4931340;29;20051;-72
2022/01/16 09:07:32;;;;;;;23.27;18.27;;;;;;;;;;4928862;29;20051;-71
2022/01/16 09:10:00;;;;;;;24.60;18.95;;;;;;;;;;4929394;29;20051;-70
2022/01/16 09:12:29;;;;;;;21.45;16.08;;;;;;;;;;4913100;29;20062;-70
2022/01/16 09:14:57;;;;;;;24.30;17.55;;;;;;;;;;4929679;29;20056;-70
2022/01/16 09:17:25;;;;;;;24.45;18.23;;;;;;;;;;4929852;29;20130;-70
2022/01/16 09:19:54;;;;;;;23.77;19.10;;;;;;;;;;4914142;29;20056;-71
2022/01/16 09:22:21;;;;;;;28.20;19.17;;;;;;;;;;4936210;29;20091;-70
2022/01/16 09:24:48;;;;;;;23.98;19.92;;;;;;;;;;4935634;29;20044;-70
2022/01/16 09:27:16;;;;;;;21.33;18.05;;;;;;;;;;4932747;29;20078;-70
2022/01/16 09:29:43;;;;;;;24.73;18.48;;;;;;;;;;4929008;29;20082;-70
2022/01/16 09:32:13;;;;;;;34.10;20.70;;;;;;;;;;4931257;29;20051;-70
2022/01/16 09:34:42;;;;;;;27.65;19.70;;;;;;;;;;4930959;29;20066;-71
2022/01/16 09:37:10;;;;;;;25.70;19.95;;;;;;;;;;4933390;29;20055;-70
2022/01/16 09:39:38;;;;;;;23.95;19.25;;;;;;;;;;4927366;29;20707;-71
2022/01/16 09:42:06;;;;;;;23.75;20.40;;;;;;;;;;4930714;29;20052;-70
2022/01/16 09:44:38;;;;;;;27.60;22.38;;;;;;;;;;4934452;29;20056;-69
2022/01/16 09:47:06;;;;;;;24.88;20.95;;;;;;;;;;4933138;29;20055;-70
2022/01/16 09:49:34;;;;;;;26.23;21.60;;;;;;;;;;4933698;29;20048;-70
2022/01/16 09:52:01;;;;;;;27.67;23.42;;;;;;;;;;4935936;29;20110;-71
2022/01/16 09:54:28;;;;;;;30.65;26.98;;;;;;;;;;4934147;29;20118;-71
2022/01/16 09:56:55;;;;;;;38.33;31.88;;;;;;;;;;4933162;29;20051;-73
2022/01/16 09:59:22;;;;;;;37.88;33.63;;;;;;;;;;4934142;29;20048;-70
2022/01/16 10:01:50;;;;;;;39.15;34.25;;;;;;;;;;4933169;29;20052;-71
2022/01/16 10:04:32;;;;;;;39.75;35.45;;;;;;;;;;4917396;29;20040;-72
2022/01/16 10:07:01;;;;;;;39.13;34.45;;;;;;;;;;4934177;29;20126;-73
2022/01/16 10:09:28;;;;;;;44.80;37.03;;;;;;;;;;4918535;29;20095;-73
2022/01/16 10:11:57;;;;;;;43.45;35.65;;;;;;;;;;4933554;29;20048;-70
2022/01/16 10:14:43;;;;;;;48.95;38.00;;;;;;;;;;4934669;29;20067;-72
2022/01/16 10:17:19;;;;;;;41.00;34.85;;;;;;;;;;4935780;29;20142;-73
2022/01/16 10:20:00;;;;;;;48.00;37.60;;;;;;;;;;4917664;29;20051;-72
2022/01/16 10:22:43;;;;;;;43.47;35.53;;;;;;;;;;4918102;29;20091;-70
2022/01/16 10:25:11;;;;;;;40.83;36.53;;;;;;;;;;4918075;29;20059;-71
2022/01/16 10:27:40;;;;;;;49.47;38.42;;;;;;;;;;4933830;29;20118;-71
2022/01/16 10:30:12;;;;;;;73.82;39.40;;;;;;;;;;4933313;29;20087;-71
2022/01/16 10:32:42;;;;;;;42.97;37.00;;;;;;;;;;4918333;29;20110;-72
2022/01/16 10:35:25;;;;;;;48.95;39.92;;;;;;;;;;4934921;29;20221;-72
2022/01/16 10:37:54;;;;;;;43.38;38.70;;;;;;;;;;4932706;29;20488;-74
2022/01/16 10:40:24;;;;;;;42.30;36.88;;;;;;;;;;4934296;29;20071;-72
2022/01/16 10:42:54;;;;;;;43.25;38.63;;;;;;;;;;4933102;29;20043;-73
2022/01/16 10:45:28;;;;;;;44.08;39.45;;;;;;;;;;4934863;29;20408;-72
2022/01/16 10:48:00;;;;;;;44.63;39.78;;;;;;;;;;4931807;29;20096;-72
2022/01/16 10:50:32;;;;;;;48.67;43.58;;;;;;;;;;4934343;29;20131;-74
2022/01/16 10:53:01;;;;;;;46.17;41.10;;;;;;;;;;4933790;29;20126;-70
2022/01/16 10:55:43;;;;;;;46.17;41.47;;;;;;;;;;4933407;29;20048;-72
2022/01/16 10:58:43;;;;;;;47.25;42.17;;;;;;;;;;4919745;29;20514;-72
2022/01/16 11:01:16;;;;;;;44.92;39.60;;;;;;;;;;4918421;29;20048;-71
2022/01/16 11:03:45;;;;;;;45.75;39.08;;;;;;;;;;4917859;29;20056;-70
2022/01/16 11:06:18;;;;;;;45.33;40.47;;;;;;;;;;4933157;29;20107;-71
2022/01/16 11:08:52;;;;;;;43.75;39.00;;;;;;;;;;4934442;29;20559;-72
2022/01/16 11:11:22;;;;;;;45.67;40.88;;;;;;;;;;4931500;29;20099;-72
2022/01/16 11:13:50;;;;;;;46.15;38.67;;;;;;;;;;4918074;29;20075;-72
2022/01/16 11:16:18;;;;;;;45.00;40.38;;;;;;;;;;4934012;29;20130;-71
2022/01/16 11:18:50;;;;;;;46.20;41.30;;;;;;;;;;4933662;29;20051;-73
2022/01/16 11:21:43;;;;;;;45.63;40.85;;;;;;;;;;4918579;29;20054;-70
2022/01/16 11:24:26;;;;;;;43.72;38.63;;;;;;;;;;4919193;29;20465;-70
2022/01/16 11:26:54;;;;;;;44.95;40.30;;;;;;;;;;4929314;29;20051;-70
2022/01/16 11:29:21;;;;;;;56.17;44.92;;;;;;;;;;4933480;29;20218;-70
2022/01/16 11:31:49;;;;;;;45.08;39.40;;;;;;;;;;4936885;29;20106;-70
2022/01/16 11:34:16;;;;;;;40.22;35.70;;;;;;;;;;4937691;29;20453;-70
2022/01/16 11:36:44;;;;;;;41.90;36.40;;;;;;;;;;4936677;29;20044;-69
2022/01/16 11:39:11;;;;;;;39.25;35.20;;;;;;;;;;4936065;29;20047;-70
2022/01/16 11:41:51;;;;;;;41.13;36.60;;;;;;;;;;4935947;29;20058;-70
2022/01/16 11:44:28;;;;;;;39.97;35.78;;;;;;;;;;4920406;29;20103;-74
2022/01/16 11:47:06;;;;;;;37.95;34.00;;;;;;;;;;4930846;29;20036;-75
2022/01/16 11:49:42;;;;;;;38.25;33.55;;;;;;;;;;4937406;29;20082;-75
2022/01/16 11:52:18;;;;;;;37.42;33.50;;;;;;;;;;4935902;29;20420;-75
2022/01/16 11:54:50;;;;;;;38.75;33.92;;;;;;;;;;4936311;29;20082;-75
2022/01/16 11:57:28;;;;;;;42.47;35.78;;;;;;;;;;4935410;29;20059;-75
2022/01/16 12:00:14;;;;;;;43.35;38.15;;;;;;;;;;4935651;29;20048;-74
2022/01/16 12:02:43;;;;;;;48.13;37.65;;;;;;;;;;4920547;29;20052;-74
2022/01/16 12:05:10;;;;;;;40.90;36.40;;;;;;;;;;4920137;29;20086;-73
2022/01/16 12:07:37;;;;;;;39.97;35.78;;;;;;;;;;4937064;29;20047;-73
2022/01/16 12:10:05;;;;;;;41.28;36.90;;;;;;;;;;4936695;29;20047;-73
2022/01/16 12:12:32;;;;;;;39.78;35.50;;;;;;;;;;4935819;29;20142;-73
2022/01/16 12:15:15;;;;;;;42.78;35.95;;;;;;;;;;4936657;29;20052;-73
2022/01/16 12:17:45;;;;;;;52.67;38.35;;;;;;;;;;4935873;29;20581;-73
2022/01/16 12:22:59;;;;;;;55.83;38.63;;;;;;;;;;4937500;29;20051;-73
2022/01/16 12:25:57;;;;;;;43.35;36.75;;;;;;;;;;4932075;29;20050;-72
2022/01/16 12:28:25;;;;;;;44.30;32.95;;;;;;;;;;4935859;29;20056;-71
2022/01/16 12:30:55;;;;;;;40.55;35.83;;;;;;;;;;4936717;29;20066;-72
2022/01/16 12:33:51;;;;;;;44.03;35.90;;;;;;;;;;4935791;29;20098;-72
2022/01/16 12:36:34;;;;;;;41.28;35.20;;;;;;;;;;4936577;29;20056;-73
2022/01/16 12:39:10;;;;;;;44.22;37.13;;;;;;;;;;4933378;29;20324;-72
2022/01/16 12:41:46;;;;;;;43.55;35.58;;;;;;;;;;4934924;29;20040;-73
2022/01/16 12:44:18;;;;;;;40.72;34.85;;;;;;;;;;4934757;29;20485;-76
2022/01/16 12:46:47;;;;;;;43.92;32.38;;;;;;;;;;4932959;29;20047;-74
2022/01/16 12:49:17;;;;;;;41.83;32.88;;;;;;;;;;4935165;29;20056;-74
2022/01/16 12:51:48;;;;;;;41.08;34.95;;;;;;;;;;4936116;29;20044;-74
2022/01/16 12:54:25;;;;;;;41.13;32.13;;;;;;;;;;4931816;29;20143;-75
2022/01/16 12:56:57;;;;;;;42.45;31.70;;;;;;;;;;4934466;29;20047;-74
2022/01/16 12:59:42;;;;;;;44.97;31.50;;;;;;;;;;4917753;29;20048;-74
2022/01/16 13:02:10;;;;;;;43.45;33.63;;;;;;;;;;4934640;29;20071;-74
2022/01/16 13:04:41;;;;;;;36.83;31.98;;;;;;;;;;4935000;29;20055;-74
2022/01/16 13:07:28;;;;;;;39.00;32.03;;;;;;;;;;4934487;29;20464;-74
2022/01/16 13:09:55;;;;;;;38.95;31.67;;;;;;;;;;4935799;29;20036;-74
2022/01/16 13:12:22;;;;;;;41.88;31.92;;;;;;;;;;4933666;29;20089;-74
2022/01/16 13:14:49;;;;;;;39.63;30.02;;;;;;;;;;4933529;29;20138;-76
2022/01/16 13:17:17;;;;;;;38.70;31.50;;;;;;;;;;4933523;29;20183;-74
2022/01/16 13:22:15;;;;;;;40.25;31.42;;;;;;;;;;4932872;29;20056;-74
2022/01/16 13:24:53;;;;;;;45.72;31.08;;;;;;;;;;4933768;29;20051;-74
2022/01/16 13:27:31;;;;;;;42.30;30.20;;;;;;;;;;4932537;29;20055;-75
2022/01/16 13:30:06;;;;;;;40.47;30.38;;;;;;;;;;4915992;29;20075;-75
2022/01/16 13:32:36;;;;;;;35.92;29.75;;;;;;;;;;4933813;29;20083;-76
2022/01/16 13:35:24;;;;;;;40.55;30.85;;;;;;;;;;4932769;29;20052;-76
2022/01/16 13:37:56;;;;;;;44.72;31.20;;;;;;;;;;4933511;29;20054;-75
2022/01/16 13:40:25;;;;;;;44.67;32.03;;;;;;;;;;4933191;29;20059;-74
2022/01/16 13:43:03;;;;;;;45.08;32.22;;;;;;;;;;4935394;29;20055;-76
2022/01/16 13:45:44;;;;;;;40.17;29.25;;;;;;;;;;4935483;29;20492;-75
2022/01/16 13:48:19;;;;;;;38.17;30.77;;;;;;;;;;4933635;29;20062;-75
2022/01/16 13:51:01;;;;;;;43.10;31.50;;;;;;;;;;4935194;29;20115;-74
2022/01/16 13:53:34;;;;;;;38.65;29.45;;;;;;;;;;4933421;29;20058;-72
2022/01/16 13:56:06;;;;;;;36.67;30.77;;;;;;;;;;4933411;29;20054;-75
2022/01/16 13:58:45;;;;;;;41.75;30.13;;;;;;;;;;4932702;29;20047;-75
2022/01/16 14:01:20;;;;;;;38.22;27.92;;;;;;;;;;4933792;29;20056;-75
2022/01/16 14:03:51;;;;;;;40.58;31.13;;;;;;;;;;4934430;29;20040;-73
2022/01/16 14:06:21;;;;;;;37.83;28.85;;;;;;;;;;4934417;29;20162;-75
2022/01/16 14:08:59;;;;;;;36.72;28.35;;;;;;;;;;4934396;29;20058;-74
2022/01/16 14:11:27;;;;;;;37.72;28.67;;;;;;;;;;4933820;29;20061;-74
2022/01/16 14:13:58;;;;;;;41.45;30.98;;;;;;;;;;4933386;29;20046;-74
2022/01/16 14:16:50;;;;;;;40.50;28.92;;;;;;;;;;4935171;29;20401;-74
2022/01/16 14:19:20;;;;;;;39.15;30.75;;;;;;;;;;4934083;29;20047;-75
2022/01/16 14:21:59;;;;;;;39.65;32.60;;;;;;;;;;4933113;29;20079;-73
2022/01/16 14:24:53;;;;;;;47.38;31.75;;;;;;;;;;4932695;29;20119;-74
2022/01/16 14:27:27;;;;;;;40.75;30.95;;;;;;;;;;4932697;29;20102;-74
2022/01/16 14:29:56;;;;;;;44.88;31.70;;;;;;;;;;4933728;29;20540;-73
2022/01/16 14:32:23;;;;;;;37.63;29.85;;;;;;;;;;4932906;29;20047;-73
2022/01/16 14:34:53;;;;;;;34.50;27.25;;;;;;;;;;4917318;29;20087;-73
2022/01/16 14:37:21;;;;;;;39.67;30.92;;;;;;;;;;4933071;29;20070;-73
2022/01/16 14:39:50;;;;;;;38.50;28.90;;;;;;;;;;4929165;29;20051;-73
2022/01/16 14:42:31;;;;;;;35.33;27.42;;;;;;;;;;4915803;29;20058;-73
2022/01/16 14:44:58;;;;;;;33.65;28.17;;;;;;;;;;4920592;29;20060;-76
2022/01/16 14:47:27;;;;;;;41.20;29.88;;;;;;;;;;4922382;29;20063;-74
2022/01/16 14:49:55;;;;;;;37.60;28.77;;;;;;;;;;4923195;29;20119;-76
2022/01/16 14:52:22;;;;;;;39.90;28.85;;;;;;;;;;4940174;29;20056;-74
2022/01/16 14:54:50;;;;;;;36.13;28.13;;;;;;;;;;4938011;29;20050;-74
2022/01/16 14:57:19;;;;;;;43.97;28.10;;;;;;;;;;4936653;29;20106;-73
2022/01/16 14:59:46;;;;;;;38.22;29.10;;;;;;;;;;4941976;29;20047;-82
2022/01/16 15:02:14;;;;;;;34.67;27.40;;;;;;;;;;4943264;29;20047;-79
2022/01/16 15:04:41;;;;;;;37.97;30.08;;;;;;;;;;4938627;29;20518;-76
2022/01/16 15:07:09;;;;;;;38.40;28.48;;;;;;;;;;4941219;29;20054;-77
2022/01/16 15:09:36;;;;;;;38.90;28.63;;;;;;;;;;4941775;29;20054;-78
2022/01/16 15:12:04;;;;;;;34.75;29.20;;;;;;;;;;4938950;29;20404;-78
2022/01/16 15:14:31;;;;;;;39.75;28.00;;;;;;;;;;4940978;29;20405;-78
2022/01/16 15:16:58;;;;;;;38.03;29.13;;;;;;;;;;4939430;29;20142;-80
2022/01/16 15:19:32;;;;;;;38.35;28.98;;;;;;;;;;4922731;29;20086;-83
2022/01/16 15:22:48;;;;;;;37.92;29.77;;;;;;;;;;4921375;29;20051;-82
2022/01/16 15:24:46;;;;;;;35.90;29.40;;;;;;;;;;4927232;29;20067;-80